createdAt,value
2018-03-07T00:00:10.176Z,76.31
2018-03-07T00:00:36.282Z,75.93
2018-03-07T00:01:02.383Z,75.93
2018-03-07T00:01:28.481Z,76.31
2018-03-07T00:01:54.632Z,76.59
2018-03-07T00:02:20.689Z,76.31
2018-03-07T00:02:46.804Z,75.93
2018-03-07T00:03:12.900Z,75.74
2018-03-07T00:03:39.005Z,76.03
2018-03-07T00:04:05.106Z,75.74
2018-03-07T00:04:31.211Z,76.21
2018-03-07T00:04:57.302Z,75.93
2018-03-07T00:05:23.404Z,76.03
2018-03-07T00:05:49.510Z,75.93
2018-03-07T00:06:15.607Z,76.03
2018-03-07T00:06:41.704Z,76.03
2018-03-07T00:07:07.805Z,76.31
2018-03-07T00:07:33.908Z,75.93
2018-03-07T00:08:00.007Z,76.03
2018-03-07T00:08:26.114Z,76.03
2018-03-07T00:08:52.207Z,75.93
2018-03-07T00:09:18.304Z,76.21
2018-03-07T00:09:44.403Z,76.03
2018-03-07T00:10:10.510Z,75.84
2018-03-07T00:10:36.611Z,76.12
2018-03-07T00:11:02.714Z,76.03
2018-03-07T00:11:28.816Z,75.93
2018-03-07T00:11:54.941Z,75.84
2018-03-07T00:12:21.035Z,76.21
2018-03-07T00:12:47.141Z,76.12
2018-03-07T00:13:13.235Z,75.84
2018-03-07T00:13:39.358Z,75.55
2018-03-07T00:14:05.454Z,75.36
2018-03-07T00:14:31.558Z,76.12
2018-03-07T00:14:57.680Z,75.93
2018-03-07T00:15:23.796Z,75.55
2018-03-07T00:15:49.900Z,75.64
2018-03-07T00:16:16.021Z,75.74
2018-03-07T00:16:42.126Z,75.64
2018-03-07T00:17:08.225Z,75.55
2018-03-07T00:17:34.328Z,75.36
2018-03-07T00:18:00.433Z,75.93
2018-03-07T00:18:26.532Z,75.36
2018-03-07T00:18:52.638Z,75.74
2018-03-07T00:19:18.753Z,75.55
2018-03-07T00:19:44.860Z,75.55
2018-03-07T00:20:10.972Z,75.45
2018-03-07T00:20:37.073Z,75.55
2018-03-07T00:21:03.180Z,75.45
2018-03-07T00:21:29.277Z,75.16
2018-03-07T00:21:55.380Z,75.4
2018-03-07T00:22:21.495Z,75.45
2018-03-07T00:22:47.600Z,74.98
2018-03-07T00:23:13.702Z,75.26
2018-03-07T00:23:39.860Z,75.4
2018-03-07T00:24:05.926Z,75.68
2018-03-07T00:24:32.023Z,75.4
2018-03-07T00:24:58.128Z,75.01
2018-03-07T00:25:24.232Z,75.01
2018-03-07T00:25:50.345Z,74.82
2018-03-07T00:26:16.487Z,74.82
2018-03-07T00:26:42.591Z,74.82
2018-03-07T00:27:08.691Z,75.11
2018-03-07T00:27:34.790Z,74.92
2018-03-07T00:28:00.898Z,74.73
2018-03-07T00:28:27.000Z,75.3
2018-03-07T00:28:53.100Z,75.2
2018-03-07T00:29:19.202Z,75.11
2018-03-07T00:29:45.304Z,75.01
2018-03-07T00:30:11.408Z,75.11
2018-03-07T00:30:37.513Z,74.92
2018-03-07T00:31:03.612Z,75.01
2018-03-07T00:31:29.732Z,74.73
2018-03-07T00:31:55.830Z,74.92
2018-03-07T00:32:21.933Z,74.92
2018-03-07T00:32:48.051Z,75.2
2018-03-07T00:33:14.154Z,74.82
2018-03-07T00:33:40.254Z,75.01
2018-03-07T00:34:06.355Z,74.92
2018-03-07T00:34:32.462Z,74.82
2018-03-07T00:34:58.579Z,74.92
2018-03-07T00:35:24.680Z,75.01
2018-03-07T00:35:50.783Z,74.73
2018-03-07T00:36:16.894Z,75.11
2018-03-07T00:36:42.990Z,74.92
2018-03-07T00:37:09.107Z,74.92
2018-03-07T00:37:35.205Z,74.82
2018-03-07T00:38:01.303Z,75.01
2018-03-07T00:38:27.408Z,75.01
2018-03-07T00:38:53.509Z,74.73
2018-03-07T00:39:19.612Z,74.73
2018-03-07T00:39:45.716Z,74.92
2018-03-07T00:40:11.817Z,74.73
2018-03-07T00:40:37.920Z,74.92
2018-03-07T00:41:04.023Z,75.11
2018-03-07T00:41:30.119Z,74.73
2018-03-07T00:41:56.226Z,75.2
2018-03-07T00:42:22.321Z,75.11
2018-03-07T00:42:48.416Z,74.92
2018-03-07T00:43:14.522Z,74.92
2018-03-07T00:43:40.621Z,75.2
2018-03-07T00:44:06.724Z,74.82
2018-03-07T00:44:32.820Z,74.82
2018-03-07T00:44:58.928Z,75.2
2018-03-07T00:45:25.029Z,75.2
2018-03-07T00:45:51.121Z,74.82
2018-03-07T00:46:17.239Z,75.3
2018-03-07T00:46:43.349Z,75.2
2018-03-07T00:47:09.449Z,75.01
2018-03-07T00:47:35.547Z,75.3
2018-03-07T00:48:01.645Z,75.01
2018-03-07T00:48:27.744Z,74.92
2018-03-07T00:48:53.847Z,74.92
2018-03-07T00:49:19.949Z,74.92
2018-03-07T00:49:46.067Z,75.11
2018-03-07T00:50:12.170Z,74.82
2018-03-07T00:50:38.269Z,75.11
2018-03-07T00:51:04.365Z,75.2
2018-03-07T00:51:30.472Z,74.82
2018-03-07T00:51:56.566Z,75.11
2018-03-07T00:52:22.672Z,75.01
2018-03-07T00:52:48.767Z,75.11
2018-03-07T00:53:14.871Z,74.92
2018-03-07T00:53:40.977Z,75.11
2018-03-07T00:54:07.074Z,74.63
2018-03-07T00:54:33.173Z,75.11
2018-03-07T00:54:59.283Z,74.73
2018-03-07T00:55:25.406Z,74.54
2018-03-07T00:55:51.509Z,74.35
2018-03-07T00:56:17.617Z,74.73
2018-03-07T00:56:43.716Z,75.11
2018-03-07T00:57:09.821Z,75.01
2018-03-07T00:57:35.928Z,74.82
2018-03-07T00:58:02.030Z,74.92
2018-03-07T00:58:28.147Z,74.92
2018-03-07T00:58:54.258Z,74.82
2018-03-07T00:59:20.351Z,74.92
2018-03-07T00:59:46.453Z,75.11
2018-03-07T01:00:12.560Z,75.01
2018-03-07T01:00:38.662Z,74.92
2018-03-07T01:01:04.760Z,74.73
2018-03-07T01:01:30.862Z,75.49
2018-03-07T01:01:56.960Z,74.92
2018-03-07T01:02:23.060Z,75.3
2018-03-07T01:02:49.185Z,74.92
2018-03-07T01:03:15.281Z,74.92
2018-03-07T01:03:41.388Z,74.92
2018-03-07T01:04:07.490Z,75.01
2018-03-07T01:04:33.584Z,74.73
2018-03-07T01:04:59.689Z,74.82
2018-03-07T01:05:25.794Z,74.54
2018-03-07T01:05:51.896Z,75.01
2018-03-07T01:06:18.005Z,74.82
2018-03-07T01:06:44.108Z,74.92
2018-03-07T01:07:10.202Z,74.92
2018-03-07T01:07:36.300Z,75.2
2018-03-07T01:08:02.403Z,75.3
2018-03-07T01:08:28.502Z,74.63
2018-03-07T01:08:54.600Z,75.2
2018-03-07T01:09:20.703Z,75.49
2018-03-07T01:09:46.810Z,75.49
2018-03-07T01:10:12.912Z,75.4
2018-03-07T01:10:39.010Z,75.68
2018-03-07T01:11:05.111Z,75.4
2018-03-07T01:11:31.215Z,74.98
2018-03-07T01:11:57.323Z,75.49
2018-03-07T01:12:23.421Z,75.11
2018-03-07T01:12:49.524Z,74.92
2018-03-07T01:13:15.620Z,75.59
2018-03-07T01:13:41.722Z,74.92
2018-03-07T01:14:07.842Z,74.79
2018-03-07T01:14:33.945Z,75.55
2018-03-07T01:15:00.047Z,75.36
2018-03-07T01:15:26.151Z,75.64
2018-03-07T01:15:52.249Z,75.16
2018-03-07T01:16:18.348Z,76.03
2018-03-07T01:16:44.452Z,76.03
2018-03-07T01:17:10.549Z,75.93
2018-03-07T01:17:36.655Z,75.93
2018-03-07T01:18:02.757Z,75.93
2018-03-07T01:18:28.854Z,75.84
2018-03-07T01:18:54.961Z,76.03
2018-03-07T01:19:21.059Z,76.03
2018-03-07T01:19:47.169Z,75.93
2018-03-07T01:20:13.298Z,76.31
2018-03-07T01:20:39.398Z,76.12
2018-03-07T01:21:05.504Z,75.93
2018-03-07T01:21:31.607Z,76.21
2018-03-07T01:21:57.724Z,76.4
2018-03-07T01:22:23.828Z,76.21
2018-03-07T01:22:49.931Z,76.21
2018-03-07T01:23:16.033Z,76.21
2018-03-07T01:23:42.165Z,75.93
2018-03-07T01:24:08.271Z,76.03
2018-03-07T01:24:34.367Z,76.03
2018-03-07T01:25:00.478Z,75.93
2018-03-07T01:25:26.576Z,75.93
2018-03-07T01:25:52.675Z,76.03
2018-03-07T01:26:18.769Z,76.12
2018-03-07T01:26:44.872Z,76.12
2018-03-07T01:27:10.993Z,75.74
2018-03-07T01:27:37.095Z,76.21
2018-03-07T01:28:03.214Z,76.69
2018-03-07T01:28:29.322Z,76.59
2018-03-07T01:28:55.418Z,76.69
2018-03-07T01:29:21.526Z,76.98
2018-03-07T01:29:47.656Z,76.88
2018-03-07T01:30:13.762Z,76.69
2018-03-07T01:30:39.885Z,76.79
2018-03-07T01:31:05.988Z,76.59
2018-03-07T01:31:32.094Z,77.07
2018-03-07T01:31:58.184Z,76.59
2018-03-07T01:32:24.288Z,76.98
2018-03-07T01:32:50.386Z,76.69
2018-03-07T01:33:16.489Z,76.5
2018-03-07T01:33:42.594Z,76.59
2018-03-07T01:34:08.700Z,76.59
2018-03-07T01:34:34.799Z,76.59
2018-03-07T01:35:00.902Z,76.98
2018-03-07T01:35:27.004Z,76.59
2018-03-07T01:35:53.105Z,76.79
2018-03-07T01:36:19.201Z,76.5
2018-03-07T01:36:45.307Z,76.79
2018-03-07T01:37:11.409Z,76.5
2018-03-07T01:37:37.524Z,76.79
2018-03-07T01:38:03.624Z,76.69
2018-03-07T01:38:29.737Z,76.59
2018-03-07T01:38:55.836Z,76.79
2018-03-07T01:39:21.948Z,76.5
2018-03-07T01:39:48.056Z,76.69
2018-03-07T01:40:14.169Z,76.79
2018-03-07T01:40:40.276Z,76.4
2018-03-07T01:41:06.389Z,76.4
2018-03-07T01:41:32.503Z,76.59
2018-03-07T01:42:01.647Z,76.4
2018-03-07T01:42:28.508Z,76.4
2018-03-07T01:42:54.635Z,75.93
2018-03-07T01:43:20.798Z,75.84
2018-03-07T01:43:46.924Z,76.12
2018-03-07T01:44:13.058Z,76.03
2018-03-07T01:44:39.196Z,76.12
2018-03-07T01:45:05.327Z,75.74
2018-03-07T01:45:31.467Z,76.69
2018-03-07T01:45:57.605Z,76.21
2018-03-07T01:46:23.756Z,76.31
2018-03-07T01:46:49.895Z,76.03
2018-03-07T01:47:16.026Z,75.84
2018-03-07T01:47:42.184Z,76.21
2018-03-07T01:48:08.336Z,76.59
2018-03-07T01:48:34.468Z,76.5
2018-03-07T01:49:00.608Z,75.93
2018-03-07T01:49:26.764Z,76.12
2018-03-07T01:49:52.899Z,76.59
2018-03-07T01:50:19.052Z,76.69
2018-03-07T01:50:45.189Z,76.5
2018-03-07T01:51:11.321Z,76.79
2018-03-07T01:51:37.460Z,76.59
2018-03-07T01:52:03.600Z,76.59
2018-03-07T01:52:29.735Z,76.98
2018-03-07T01:52:55.866Z,76.98
2018-03-07T01:53:22.000Z,76.5
2018-03-07T01:53:48.133Z,76.88
2018-03-07T01:54:14.266Z,76.4
2018-03-07T01:54:40.399Z,77.17
2018-03-07T01:55:06.534Z,76.79
2018-03-07T01:55:32.671Z,77.17
2018-03-07T01:55:58.809Z,76.88
2018-03-07T01:56:24.944Z,77.07
2018-03-07T01:56:51.074Z,76.88
2018-03-07T01:57:17.216Z,77.07
2018-03-07T01:57:43.347Z,76.79
2018-03-07T01:58:09.478Z,76.88
2018-03-07T01:58:35.616Z,76.5
2018-03-07T01:59:01.747Z,76.69
2018-03-07T01:59:27.886Z,76.69
2018-03-07T01:59:54.023Z,76.69
2018-03-07T02:00:20.154Z,76.69
2018-03-07T02:00:46.288Z,76.21
2018-03-07T02:01:12.428Z,76.5
2018-03-07T02:01:38.581Z,76.5
2018-03-07T02:02:04.727Z,76.4
2018-03-07T02:02:30.868Z,76.59
2018-03-07T02:02:57.021Z,76.5
2018-03-07T02:03:23.158Z,76.59
2018-03-07T02:03:49.288Z,76.06
2018-03-07T02:04:15.422Z,76.16
2018-03-07T02:04:41.561Z,75.96
2018-03-07T02:05:07.697Z,75.96
2018-03-07T02:05:33.854Z,75.93
2018-03-07T02:06:00.024Z,76.12
2018-03-07T02:06:26.158Z,76.03
2018-03-07T02:06:52.292Z,75.74
2018-03-07T02:07:18.428Z,76.03
2018-03-07T02:07:44.558Z,76.31
2018-03-07T02:08:10.698Z,76.79
2018-03-07T02:08:36.835Z,76.5
2018-03-07T02:09:02.965Z,76.64
2018-03-07T02:09:29.104Z,77.01
2018-03-07T02:09:55.238Z,76.79
2018-03-07T02:10:21.375Z,76.79
2018-03-07T02:10:47.507Z,76.31
2018-03-07T02:11:13.645Z,76.79
2018-03-07T02:11:39.786Z,76.59
2018-03-07T02:12:05.957Z,76.4
2018-03-07T02:12:32.096Z,76.79
2018-03-07T02:12:58.223Z,76.5
2018-03-07T02:13:24.361Z,76.5
2018-03-07T02:13:50.510Z,76.59
2018-03-07T02:14:16.634Z,76.59
2018-03-07T02:14:42.794Z,76.79
2018-03-07T02:15:08.927Z,76.79
2018-03-07T02:15:35.087Z,76.69
2018-03-07T02:16:01.249Z,76.88
2018-03-07T02:16:27.389Z,76.98
2018-03-07T02:16:53.523Z,77.17
2018-03-07T02:17:19.650Z,76.88
2018-03-07T02:17:45.783Z,77.07
2018-03-07T02:18:11.917Z,77.17
2018-03-07T02:18:38.078Z,76.88
2018-03-07T02:19:04.207Z,76.88
2018-03-07T02:19:30.346Z,76.88
2018-03-07T02:19:56.475Z,77.17
2018-03-07T02:20:22.611Z,76.98
2018-03-07T02:20:48.748Z,77.17
2018-03-07T02:21:14.879Z,77.07
2018-03-07T02:21:41.014Z,77.07
2018-03-07T02:22:07.152Z,76.88
2018-03-07T02:22:33.302Z,77.17
2018-03-07T02:22:59.465Z,76.88
2018-03-07T02:23:25.597Z,77.07
2018-03-07T02:23:51.734Z,77.07
2018-03-07T02:24:17.867Z,76.98
2018-03-07T02:24:44.005Z,76.98
2018-03-07T02:25:10.141Z,77.55
2018-03-07T02:25:36.273Z,77.36
2018-03-07T02:26:02.411Z,77.07
2018-03-07T02:26:28.541Z,76.88
2018-03-07T02:26:54.679Z,76.88
2018-03-07T02:27:20.834Z,76.79
2018-03-07T02:27:46.970Z,77.17
2018-03-07T02:28:13.102Z,76.88
2018-03-07T02:28:39.235Z,76.98
2018-03-07T02:29:05.376Z,76.79
2018-03-07T02:29:31.508Z,76.88
2018-03-07T02:29:57.643Z,77.07
2018-03-07T02:30:23.777Z,76.79
2018-03-07T02:30:49.910Z,77.07
2018-03-07T02:31:16.053Z,76.98
2018-03-07T02:31:42.184Z,77.07
2018-03-07T02:32:08.342Z,76.88
2018-03-07T02:32:34.475Z,77.17
2018-03-07T02:33:00.634Z,77.17
2018-03-07T02:33:26.790Z,77.17
2018-03-07T02:33:52.918Z,77.07
2018-03-07T02:34:19.059Z,77.07
2018-03-07T02:34:45.216Z,76.98
2018-03-07T02:35:11.353Z,77.07
2018-03-07T02:35:37.517Z,76.88
2018-03-07T02:36:03.647Z,77.17
2018-03-07T02:36:29.820Z,76.98
2018-03-07T02:36:55.963Z,76.88
2018-03-07T02:37:22.101Z,77.17
2018-03-07T02:37:48.240Z,76.88
2018-03-07T02:38:14.370Z,76.69
2018-03-07T02:38:40.518Z,76.79
2018-03-07T02:39:06.648Z,77.07
2018-03-07T02:39:32.793Z,77.17
2018-03-07T02:39:58.929Z,76.44
2018-03-07T02:40:25.060Z,76.44
2018-03-07T02:40:51.197Z,76.5
2018-03-07T02:41:17.347Z,76.4
2018-03-07T02:41:43.503Z,76.79
2018-03-07T02:42:09.640Z,76.59
2018-03-07T02:42:35.793Z,76.79
2018-03-07T02:43:01.935Z,76.59
2018-03-07T02:43:28.069Z,76.5
2018-03-07T02:43:54.203Z,76.69
2018-03-07T02:44:20.333Z,76.35
2018-03-07T02:44:46.498Z,76.54
2018-03-07T02:45:12.636Z,76.35
2018-03-07T02:45:38.767Z,76.06
2018-03-07T02:46:04.908Z,76.06
2018-03-07T02:46:31.036Z,76.16
2018-03-07T02:46:57.177Z,75.96
2018-03-07T02:47:23.306Z,76.25
2018-03-07T02:47:49.438Z,76.16
2018-03-07T02:48:15.578Z,76.16
2018-03-07T02:48:41.718Z,76.06
2018-03-07T02:49:07.851Z,75.78
2018-03-07T02:49:33.981Z,76.44
2018-03-07T02:50:00.119Z,76.25
2018-03-07T02:50:26.278Z,76.25
2018-03-07T02:50:52.408Z,76.25
2018-03-07T02:51:18.544Z,75.87
2018-03-07T02:51:44.676Z,76.16
2018-03-07T02:52:10.811Z,75.78
2018-03-07T02:52:36.941Z,76.06
2018-03-07T02:53:03.079Z,76.06
2018-03-07T02:53:29.230Z,75.87
2018-03-07T02:53:55.399Z,76.16
2018-03-07T02:54:21.499Z,75.78
2018-03-07T02:54:47.664Z,76.21
2018-03-07T02:55:13.793Z,75.78
2018-03-07T02:55:39.931Z,76.16
2018-03-07T02:56:06.065Z,76.35
2018-03-07T02:56:32.220Z,76.16
2018-03-07T02:56:58.357Z,76.03
2018-03-07T02:57:24.486Z,75.87
2018-03-07T02:57:50.626Z,76.06
2018-03-07T02:58:16.766Z,76.16
2018-03-07T02:58:42.900Z,76.06
2018-03-07T02:59:09.030Z,75.87
2018-03-07T02:59:35.172Z,76.25
2018-03-07T03:00:01.311Z,76.25
2018-03-07T03:00:27.440Z,76.06
2018-03-07T03:00:53.597Z,75.74
2018-03-07T03:01:19.729Z,75.96
2018-03-07T03:01:45.870Z,75.78
2018-03-07T03:02:12.006Z,76.21
2018-03-07T03:02:38.135Z,75.87
2018-03-07T03:03:04.271Z,75.84
2018-03-07T03:03:30.400Z,76.16
2018-03-07T03:03:56.555Z,76.06
2018-03-07T03:04:22.706Z,76.21
2018-03-07T03:04:48.863Z,76.03
2018-03-07T03:05:14.995Z,75.93
2018-03-07T03:05:41.129Z,76.12
2018-03-07T03:06:07.269Z,76.12
2018-03-07T03:06:33.399Z,76.12
2018-03-07T03:06:59.531Z,76.03
2018-03-07T03:07:25.697Z,76.12
2018-03-07T03:07:51.852Z,75.84
2018-03-07T03:08:17.990Z,75.93
2018-03-07T03:08:44.122Z,76.03
2018-03-07T03:09:10.283Z,75.84
2018-03-07T03:09:36.443Z,75.84
2018-03-07T03:10:02.584Z,76.03
2018-03-07T03:10:28.737Z,76.21
2018-03-07T03:10:54.868Z,76.31
2018-03-07T03:11:21.008Z,76.12
2018-03-07T03:11:47.141Z,76.03
2018-03-07T03:12:13.271Z,76.31
2018-03-07T03:12:39.447Z,76.31
2018-03-07T03:13:05.536Z,76.03
2018-03-07T03:13:31.676Z,75.93
2018-03-07T03:13:57.812Z,76.4
2018-03-07T03:14:23.969Z,76.4
2018-03-07T03:14:50.100Z,76.31
2018-03-07T03:15:16.238Z,76.4
2018-03-07T03:15:42.368Z,76.69
2018-03-07T03:16:08.505Z,76.4
2018-03-07T03:16:34.642Z,76.5
2018-03-07T03:17:00.776Z,76.5
2018-03-07T03:17:26.912Z,76.59
2018-03-07T03:17:53.059Z,76.31
2018-03-07T03:18:19.191Z,76.4
2018-03-07T03:18:45.325Z,76.69
2018-03-07T03:19:11.468Z,76.79
2018-03-07T03:19:37.600Z,76.69
2018-03-07T03:20:03.736Z,76.79
2018-03-07T03:20:29.882Z,76.59
2018-03-07T03:20:56.012Z,76.4
2018-03-07T03:21:22.141Z,76.4
2018-03-07T03:21:48.272Z,76.4
2018-03-07T03:22:14.403Z,76.5
2018-03-07T03:22:40.540Z,76.4
2018-03-07T03:23:06.674Z,76.4
2018-03-07T03:23:32.813Z,76.59
2018-03-07T03:23:58.951Z,76.59
2018-03-07T03:24:25.086Z,76.31
2018-03-07T03:24:51.219Z,76.79
2018-03-07T03:25:17.380Z,76.59
2018-03-07T03:25:43.512Z,76.4
2018-03-07T03:26:09.665Z,76.21
2018-03-07T03:26:35.803Z,76.88
2018-03-07T03:27:01.970Z,77.17
2018-03-07T03:27:28.095Z,77.07
2018-03-07T03:27:54.241Z,76.88
2018-03-07T03:28:20.392Z,77.07
2018-03-07T03:28:46.521Z,76.88
2018-03-07T03:29:12.659Z,77.17
2018-03-07T03:29:38.866Z,76.88
2018-03-07T03:30:05.077Z,76.88
2018-03-07T03:30:31.187Z,76.98
2018-03-07T03:30:57.308Z,76.79
2018-03-07T03:31:23.440Z,76.88
2018-03-07T03:31:49.599Z,76.98
2018-03-07T03:32:15.733Z,76.98
2018-03-07T03:32:41.868Z,77.17
2018-03-07T03:33:07.998Z,77.07
2018-03-07T03:33:34.135Z,77.17
2018-03-07T03:34:00.274Z,76.98
2018-03-07T03:34:26.405Z,76.98
2018-03-07T03:34:52.558Z,76.88
2018-03-07T03:35:18.694Z,77.45
2018-03-07T03:35:44.831Z,77.36
2018-03-07T03:36:10.960Z,77.26
2018-03-07T03:36:37.128Z,78.03
2018-03-07T03:37:03.255Z,77.93
2018-03-07T03:37:29.389Z,78.03
2018-03-07T03:37:55.525Z,77.8
2018-03-07T03:38:21.669Z,78.03
2018-03-07T03:38:47.820Z,77.83
2018-03-07T03:39:13.957Z,78.03
2018-03-07T03:39:40.087Z,78.03
2018-03-07T03:40:06.220Z,77.89
2018-03-07T03:40:32.358Z,78.22
2018-03-07T03:40:58.487Z,77.74
2018-03-07T03:41:24.628Z,78.08
2018-03-07T03:41:50.837Z,78.12
2018-03-07T03:42:16.937Z,78.31
2018-03-07T03:42:43.080Z,78.03
2018-03-07T03:43:09.258Z,78.41
2018-03-07T03:43:35.413Z,77.98
2018-03-07T03:44:01.548Z,77.83
2018-03-07T03:44:27.686Z,78.17
2018-03-07T03:44:53.818Z,77.98
2018-03-07T03:45:19.949Z,78.08
2018-03-07T03:45:46.126Z,78.12
2018-03-07T03:46:12.248Z,78.12
2018-03-07T03:46:38.401Z,78.12
2018-03-07T03:47:04.536Z,78.12
2018-03-07T03:47:30.670Z,78.5
2018-03-07T03:47:56.807Z,78.37
2018-03-07T03:48:22.937Z,78.08
2018-03-07T03:48:49.077Z,78.75
2018-03-07T03:49:15.219Z,78.65
2018-03-07T03:49:41.357Z,78.85
2018-03-07T03:50:07.481Z,78.56
2018-03-07T03:50:33.618Z,78.65
2018-03-07T03:50:59.771Z,78.37
2018-03-07T03:51:25.911Z,78.65
2018-03-07T03:51:52.069Z,78.27
2018-03-07T03:52:18.205Z,78.46
2018-03-07T03:52:44.362Z,78.08
2018-03-07T03:53:10.496Z,78.56
2018-03-07T03:53:36.623Z,79.22
2018-03-07T03:54:02.785Z,78.75
2018-03-07T03:54:28.917Z,79.03
2018-03-07T03:54:55.070Z,79.22
2018-03-07T03:55:21.204Z,79.51
2018-03-07T03:55:47.332Z,79.32
2018-03-07T03:56:13.471Z,79.41
2018-03-07T03:56:39.604Z,79.32
2018-03-07T03:57:05.747Z,79.03
2018-03-07T03:57:31.881Z,79.03
2018-03-07T03:57:58.012Z,79.22
2018-03-07T03:58:24.146Z,78.94
2018-03-07T03:58:50.284Z,79.03
2018-03-07T03:59:16.413Z,78.94
2018-03-07T03:59:42.548Z,79.22
2018-03-07T04:00:08.688Z,78.65
2018-03-07T04:00:34.814Z,78.65
2018-03-07T04:01:00.954Z,78.85
2018-03-07T04:01:27.088Z,79.03
2018-03-07T04:01:53.241Z,78.85
2018-03-07T04:02:19.377Z,78.85
2018-03-07T04:02:45.537Z,78.85
2018-03-07T04:03:11.689Z,78.85
2018-03-07T04:03:37.827Z,79.03
2018-03-07T04:04:03.960Z,79.22
2018-03-07T04:04:30.103Z,79.03
2018-03-07T04:04:56.231Z,78.94
2018-03-07T04:05:22.359Z,78.46
2018-03-07T04:05:48.496Z,78.56
2018-03-07T04:06:14.633Z,78.65
2018-03-07T04:06:40.763Z,78.65
2018-03-07T04:07:06.896Z,78.85
2018-03-07T04:07:33.033Z,79.13
2018-03-07T04:07:59.163Z,79.13
2018-03-07T04:08:25.300Z,79.22
2018-03-07T04:08:51.434Z,78.75
2018-03-07T04:09:17.564Z,78.94
2018-03-07T04:09:43.704Z,79.22
2018-03-07T04:10:09.834Z,78.94
2018-03-07T04:10:35.988Z,78.75
2018-03-07T04:11:02.128Z,78.65
2018-03-07T04:11:28.259Z,78.85
2018-03-07T04:11:54.402Z,78.94
2018-03-07T04:12:20.533Z,78.56
2018-03-07T04:12:46.667Z,79.03
2018-03-07T04:13:12.801Z,78.65
2018-03-07T04:13:38.930Z,78.65
2018-03-07T04:14:05.094Z,78.94
2018-03-07T04:14:31.224Z,78.65
2018-03-07T04:14:57.352Z,78.75
2018-03-07T04:15:23.490Z,78.56
2018-03-07T04:15:49.624Z,78.65
2018-03-07T04:16:15.773Z,78.17
2018-03-07T04:16:41.905Z,78.37
2018-03-07T04:17:08.032Z,78.56
2018-03-07T04:17:34.173Z,78.17
2018-03-07T04:18:00.305Z,78.46
2018-03-07T04:18:26.439Z,78.65
2018-03-07T04:18:52.578Z,78.46
2018-03-07T04:19:18.731Z,78.56
2018-03-07T04:19:44.867Z,78.37
2018-03-07T04:20:10.997Z,78.37
2018-03-07T04:20:37.129Z,78.27
2018-03-07T04:21:03.297Z,78.17
2018-03-07T04:21:29.453Z,78.65
2018-03-07T04:21:55.594Z,79.03
2018-03-07T04:22:21.732Z,78.65
2018-03-07T04:22:47.888Z,78.56
2018-03-07T04:23:14.024Z,78.65
2018-03-07T04:23:40.165Z,78.75
2018-03-07T04:24:06.292Z,78.56
2018-03-07T04:24:32.422Z,78.56
2018-03-07T04:24:58.562Z,78.65
2018-03-07T04:25:24.691Z,79.03
2018-03-07T04:25:50.850Z,78.75
2018-03-07T04:26:16.983Z,78.65
2018-03-07T04:26:43.120Z,78.94
2018-03-07T04:27:09.249Z,78.75
2018-03-07T04:27:35.386Z,78.85
2018-03-07T04:28:01.526Z,78.94
2018-03-07T04:28:27.654Z,78.75
2018-03-07T04:28:53.791Z,78.75
2018-03-07T04:29:19.921Z,79.13
2018-03-07T04:29:46.057Z,78.94
2018-03-07T04:30:12.186Z,78.85
2018-03-07T04:30:38.341Z,79.13
2018-03-07T04:31:04.481Z,78.75
2018-03-07T04:31:30.610Z,78.85
2018-03-07T04:31:56.748Z,78.85
2018-03-07T04:32:22.882Z,78.65
2018-03-07T04:32:49.013Z,78.85
2018-03-07T04:33:15.146Z,79.03
2018-03-07T04:33:41.282Z,78.56
2018-03-07T04:34:07.446Z,78.75
2018-03-07T04:34:33.575Z,78.65
2018-03-07T04:34:59.712Z,78.94
2018-03-07T04:35:25.841Z,78.75
2018-03-07T04:35:51.973Z,78.85
2018-03-07T04:36:18.114Z,78.56
2018-03-07T04:36:44.249Z,78.75
2018-03-07T04:37:10.382Z,78.85
2018-03-07T04:37:36.520Z,78.75
2018-03-07T04:38:02.655Z,78.56
2018-03-07T04:38:28.787Z,78.85
2018-03-07T04:38:54.926Z,78.65
2018-03-07T04:39:21.057Z,78.65
2018-03-07T04:39:47.193Z,79.13
2018-03-07T04:40:13.328Z,78.94
2018-03-07T04:40:39.459Z,78.94
2018-03-07T04:41:05.596Z,79.13
2018-03-07T04:41:31.745Z,79.32
2018-03-07T04:41:57.883Z,79.51
2018-03-07T04:42:24.024Z,79.6
2018-03-07T04:42:50.153Z,79.22
2018-03-07T04:43:16.293Z,79.13
2018-03-07T04:43:42.420Z,79.03
2018-03-07T04:44:08.551Z,79.41
2018-03-07T04:44:34.685Z,79.7
2018-03-07T04:45:00.819Z,79.22
2018-03-07T04:45:26.956Z,79.51
2018-03-07T04:45:53.095Z,79.6
2018-03-07T04:46:19.230Z,79.6
2018-03-07T04:46:45.363Z,79.51
2018-03-07T04:47:11.489Z,79.51
2018-03-07T04:47:37.624Z,79.8
2018-03-07T04:48:03.762Z,79.8
2018-03-07T04:48:29.895Z,79.99
2018-03-07T04:48:56.032Z,79.8
2018-03-07T04:49:22.159Z,79.6
2018-03-07T04:49:48.296Z,79.6
2018-03-07T04:50:14.430Z,79.8
2018-03-07T04:50:40.562Z,79.6
2018-03-07T04:51:06.699Z,79.7
2018-03-07T04:51:32.837Z,79.99
2018-03-07T04:51:58.967Z,79.99
2018-03-07T04:52:25.104Z,79.6
2018-03-07T04:52:51.233Z,79.99
2018-03-07T04:53:17.365Z,79.6
2018-03-07T04:53:43.499Z,80.36
2018-03-07T04:54:09.638Z,80.18
2018-03-07T04:54:35.769Z,80.27
2018-03-07T04:55:01.904Z,80.27
2018-03-07T04:55:28.042Z,80.46
2018-03-07T04:55:54.173Z,80.27
2018-03-07T04:56:20.336Z,80.08
2018-03-07T04:56:46.461Z,80.27
2018-03-07T04:57:12.602Z,80.55
2018-03-07T04:57:38.731Z,80.65
2018-03-07T04:58:04.862Z,80.27
2018-03-07T04:58:31.042Z,80.27
2018-03-07T04:58:57.171Z,80.18
2018-03-07T04:59:23.340Z,80.55
2018-03-07T04:59:49.468Z,80.46
2018-03-07T05:00:15.604Z,80.46
2018-03-07T05:00:41.755Z,80.46
2018-03-07T05:01:07.896Z,80.27
2018-03-07T05:01:34.033Z,80.84
2018-03-07T05:02:00.185Z,80.55
2018-03-07T05:02:26.348Z,80.65
2018-03-07T05:02:52.488Z,80.46
2018-03-07T05:03:18.617Z,80.46
2018-03-07T05:03:44.757Z,80.08
2018-03-07T05:04:10.883Z,80.36
2018-03-07T05:04:37.023Z,79.6
2018-03-07T05:05:03.159Z,79.6
2018-03-07T05:05:29.292Z,79.51
2018-03-07T05:05:55.422Z,80.18
2018-03-07T05:06:21.556Z,80.18
2018-03-07T05:06:47.694Z,80.08
2018-03-07T05:07:13.856Z,80.27
2018-03-07T05:07:39.993Z,80.65
2018-03-07T05:08:06.122Z,80.27
2018-03-07T05:08:32.258Z,80.08
2018-03-07T05:08:58.398Z,80.84
2018-03-07T05:09:24.530Z,80.27
2018-03-07T05:09:50.669Z,80.55
2018-03-07T05:10:16.823Z,80.27
2018-03-07T05:10:42.956Z,80.18
2018-03-07T05:11:09.095Z,80.75
2018-03-07T05:11:35.231Z,80.27
2018-03-07T05:12:01.409Z,80.46
2018-03-07T05:12:27.569Z,80.36
2018-03-07T05:12:53.720Z,80.27
2018-03-07T05:13:19.878Z,80.36
2018-03-07T05:13:46.017Z,80.27
2018-03-07T05:14:12.147Z,80.55
2018-03-07T05:14:38.283Z,80.52
2018-03-07T05:15:04.447Z,80.55
2018-03-07T05:15:30.582Z,80.23
2018-03-07T05:15:56.714Z,80.75
2018-03-07T05:16:22.854Z,80.33
2018-03-07T05:16:48.983Z,80.08
2018-03-07T05:17:15.121Z,79.94
2018-03-07T05:17:41.257Z,80.55
2018-03-07T05:18:07.390Z,80.27
2018-03-07T05:18:33.521Z,80.65
2018-03-07T05:18:59.658Z,80.8
2018-03-07T05:19:25.801Z,80.61
2018-03-07T05:19:51.934Z,80.71
2018-03-07T05:20:18.060Z,80.42
2018-03-07T05:20:44.200Z,80.71
2018-03-07T05:21:10.350Z,80.9
2018-03-07T05:21:36.480Z,80.9
2018-03-07T05:22:02.614Z,80.71
2018-03-07T05:22:28.748Z,80.42
2018-03-07T05:22:54.883Z,80.71
2018-03-07T05:23:21.015Z,80.71
2018-03-07T05:23:47.153Z,80.8
2018-03-07T05:24:13.290Z,80.71
2018-03-07T05:24:39.424Z,80.52
2018-03-07T05:25:05.553Z,80.9
2018-03-07T05:25:31.683Z,80.71
2018-03-07T05:25:57.819Z,80.9
2018-03-07T05:26:23.953Z,80.99
2018-03-07T05:26:50.090Z,80.8
2018-03-07T05:27:16.224Z,80.8
2018-03-07T05:27:42.354Z,80.8
2018-03-07T05:28:08.497Z,80.52
2018-03-07T05:28:34.621Z,80.71
2018-03-07T05:29:00.755Z,80.61
2018-03-07T05:29:26.893Z,80.61
2018-03-07T05:29:53.030Z,80.61
2018-03-07T05:30:19.168Z,81.28
2018-03-07T05:30:45.302Z,81.37
2018-03-07T05:31:11.439Z,81.47
2018-03-07T05:31:37.574Z,81.76
2018-03-07T05:32:03.708Z,81.85
2018-03-07T05:32:29.837Z,81.56
2018-03-07T05:32:55.975Z,81.76
2018-03-07T05:33:22.111Z,81.18
2018-03-07T05:33:48.244Z,80.99
2018-03-07T05:34:14.382Z,80.99
2018-03-07T05:34:40.509Z,80.61
2018-03-07T05:35:06.642Z,80.9
2018-03-07T05:35:32.805Z,80.9
2018-03-07T05:35:58.939Z,81.18
2018-03-07T05:36:25.069Z,80.99
2018-03-07T05:36:51.206Z,80.9
2018-03-07T05:37:17.335Z,80.9
2018-03-07T05:37:43.492Z,80.8